KMWL/MWL METAR and TAF weather

Enter ICAO airport designator
Station Type Date Time Source
KMWL METAR 2022/01/19 19:53 UTC NOAA

KMWL 191953Z AUTO 01014G22KT 10SM SCT120 15/03 A2997 RMK AO2 PK WND 36026/1935 SLP143 T01500028


Station Type Date Time Source
KMWL Decoded METAR 2022/01/19 19:53 UTC NOAA

MINERAL WELLS AIRPORT, TX, United States (KMWL) 32-47N 098-04W 284M
Jan 19, 2022 - 02:53 PM EST / 2022.01.19 1953 UTC
Wind: from the N (010 degrees) at 16 MPH (14 KT) gusting to 25 MPH (22 KT):0
Visibility: 10 mile(s):0
Sky conditions: partly cloudy
Temperature: 59.0 F (15.0 C)
Dew Point: 37.0 F (2.8 C)
Relative Humidity: 43%
Pressure (altimeter): 29.97 in. Hg (1014 hPa)
ob: KMWL 191953Z AUTO 01014G22KT 10SM SCT120 15/03 A2997 RMK AO2 PK WND 36026/1935 SLP143 T01500028
cycle: 20

Station Type Date Time Source
KMWL TAF UTC NOAA

Error!

Example: see airport list